Terminal Aerodrome Forecast
Issued by NWS Omaha/Valley, NE

Home | Current Version | Previous Version | Graphics & Text | Print | Product List | Glossary On
Versions: 1 2 3 4 5 6 7 8 9 10 11 12 13 14 15 16 17 18 19 20 21 22
000
FTUS43 KOAX 230659 AAA
TAFOFK
TAF AMD
KOFK 230659Z 2307/2406 VRB04KT 5SM BR SCT007 BKN025
      TEMPO 2307/2310 1SM BR BKN007
     FM231000 27004KT 3SM BR BKN007
      TEMPO 2310/2314 1SM BR BKN003
     FM231600 22005KT P6SM SCT025
     FM231900 21009KT P6SM SCT030 SCT100=

USA.gov is the U.S. government's official web portal to all federal, state and local government web resources and services.